Time,TemperatureF,DewpointF,PressureIn,WindDirection,WindDirectionDegrees,WindSpeedMPH,WindSpeedGustMPH,Humidity,HourlyPrecipIn,Conditions,Clouds,dailyrainin,SoftwareType,DateUTC
2013-04-10 00:00:00,68.3,60.1,29.86,SSW,208,0.0,3.0,75,0.00,,---,0.00,VWS V14.01,2013-04-10 04:00:00,
2013-04-10 00:01:00,68.2,60.3,29.86,SSW,208,0.0,0.0,76,0.00,,---,0.00,VWS V14.01,2013-04-10 04:01:00,
2013-04-10 00:06:00,68.0,60.2,29.86,SSW,208,0.0,0.0,76,0.00,,---,0.00,VWS V14.01,2013-04-10 04:06:00,
2013-04-10 00:11:00,67.7,60.2,29.86,SSW,208,0.0,0.0,77,0.00,,---,0.00,VWS V14.01,2013-04-10 04:11:00,
2013-04-10 00:16:00,67.5,60.0,29.86,SSW,208,0.0,0.0,77,0.00,,---,0.00,VWS V14.01,2013-04-10 04:16:00,
2013-04-10 00:21:00,67.2,59.8,29.86,SSW,208,0.0,0.0,77,0.00,,---,0.00,VWS V14.01,2013-04-10 04:21:00,
2013-04-10 00:26:00,67.0,59.9,29.86,SSW,208,0.0,0.0,78,0.00,,---,0.00,VWS V14.01,2013-04-10 04:26:00,
2013-04-10 00:30:00,67.0,59.9,29.86,SSW,208,0.0,0.0,78,0.00,,---,0.00,VWS V14.01,2013-04-10 04:30:00,
2013-04-10 00:32:00,67.0,59.9,29.86,SSW,208,0.0,0.0,78,0.00,,---,0.00,VWS V14.01,2013-04-10 04:32:00,
2013-04-10 00:37:00,66.9,59.8,29.86,SSW,208,0.0,0.0,78,0.00,,---,0.00,VWS V14.01,2013-04-10 04:37:00,
2013-04-10 00:42:00,66.3,59.6,29.87,SSW,207,0.0,0.0,79,0.00,,---,0.00,VWS V14.01,2013-04-10 04:42:00,
2013-04-10 00:47:00,65.9,59.6,29.87,SSW,208,0.0,0.0,80,0.00,,---,0.00,VWS V14.01,2013-04-10 04:47:00,
2013-04-10 00:52:00,65.8,59.5,29.86,SSW,208,0.0,0.0,80,0.00,,---,0.00,VWS V14.01,2013-04-10 04:52:00,
2013-04-10 00:57:00,65.7,59.4,29.86,SSW,208,0.0,0.0,80,0.00,,---,0.00,VWS V14.01,2013-04-10 04:57:00,
2013-04-10 01:00:00,65.6,59.3,29.86,SSW,208,0.0,0.0,80,0.00,,---,0.00,VWS V14.01,2013-04-10 05:00:00,
2013-04-10 01:02:00,65.6,59.3,29.87,SSW,208,0.0,0.0,80,0.00,,---,0.00,VWS V14.01,2013-04-10 05:02:00,
2013-04-10 01:07:00,65.5,59.5,29.87,SSW,209,0.0,0.0,81,0.00,,---,0.00,VWS V14.01,2013-04-10 05:07:00,
2013-04-10 01:12:00,65.5,59.5,29.87,SSW,208,0.0,0.0,81,0.00,,---,0.00,VWS V14.01,2013-04-10 05:12:00,
2013-04-10 01:17:00,65.3,59.3,29.87,SSW,209,0.0,0.0,81,0.00,,---,0.00,VWS V14.01,2013-04-10 05:17:00,
2013-04-10 01:22:00,65.1,59.1,29.87,SSW,207,0.0,0.0,81,0.00,,---,0.00,VWS V14.01,2013-04-10 05:22:00,
2013-04-10 01:27:00,65.2,59.6,29.87,SSW,208,0.0,0.0,82,0.00,,---,0.00,VWS V14.01,2013-04-10 05:27:00,
2013-04-10 01:30:00,65.3,59.7,29.87,SSW,209,0.0,0.0,82,0.00,,---,0.00,VWS V14.01,2013-04-10 05:30:00,
2013-04-10 01:32:00,65.4,59.4,29.87,SSW,208,0.0,0.0,81,0.00,,---,0.00,VWS V14.01,2013-04-10 05:32:00,
2013-04-10 01:37:00,65.7,59.7,29.87,SE,125,1.0,1.0,81,0.00,,---,0.00,VWS V14.01,2013-04-10 05:37:00,
2013-04-10 01:42:00,65.5,59.2,29.87,North,356,4.0,7.0,80,0.00,,---,0.00,VWS V14.01,2013-04-10 05:42:00,
2013-04-10 01:47:00,64.5,57.8,29.87,NNW,339,3.0,7.0,79,0.00,,---,0.00,VWS V14.01,2013-04-10 05:47:00,
2013-04-10 01:52:00,63.8,57.5,29.87,North,5,0.0,7.0,80,0.00,,---,0.00,VWS V14.01,2013-04-10 05:52:00,
2013-04-10 01:57:00,63.1,56.8,29.87,North,360,1.0,7.0,80,0.00,,---,0.00,VWS V14.01,2013-04-10 05:57:00,
2013-04-10 02:00:00,62.7,56.5,29.87,NNE,14,1.0,7.0,80,0.00,,---,0.00,VWS V14.01,2013-04-10 06:00:00,
2013-04-10 02:02:00,62.5,56.2,29.87,North,349,0.0,2.0,80,0.00,,---,0.00,VWS V14.01,2013-04-10 06:02:00,
2013-04-10 02:07:00,62.1,55.9,29.87,North,354,4.0,5.0,80,0.00,,---,0.00,VWS V14.01,2013-04-10 06:07:00,
2013-04-10 02:12:00,61.5,54.9,29.87,NNE,13,1.0,5.0,79,0.00,,---,0.00,VWS V14.01,2013-04-10 06:12:00,
2013-04-10 02:17:00,61.0,54.8,29.87,ESE,120,4.0,5.0,80,0.00,,---,0.00,VWS V14.01,2013-04-10 06:17:00,
2013-04-10 02:22:00,60.3,54.1,29.86,NNW,333,1.0,8.0,80,0.00,,---,0.00,VWS V14.01,2013-04-10 06:22:00,
2013-04-10 02:27:00,59.6,53.8,29.86,ENE,62,0.0,9.0,81,0.00,,---,0.00,VWS V14.01,2013-04-10 06:27:00,
2013-04-10 02:30:00,59.3,53.8,29.86,East,88,0.0,9.0,82,0.00,,---,0.00,VWS V14.01,2013-04-10 06:30:00,
2013-04-10 02:32:00,59.0,53.2,29.86,ENE,77,2.0,5.0,81,0.00,,---,0.00,VWS V14.01,2013-04-10 06:32:00,
2013-04-10 02:37:00,58.4,52.9,29.87,NW,326,2.0,6.0,82,0.00,,---,0.00,VWS V14.01,2013-04-10 06:37:00,
2013-04-10 02:42:00,57.6,51.8,29.87,West,271,1.0,6.0,81,0.00,,---,0.00,VWS V14.01,2013-04-10 06:42:00,
2013-04-10 02:47:00,57.0,51.6,29.86,NNW,345,2.0,6.0,82,0.00,,---,0.00,VWS V14.01,2013-04-10 06:47:00,
2013-04-10 02:53:00,56.5,51.4,29.86,ENE,74,1.0,6.0,83,0.00,,---,0.00,VWS V14.01,2013-04-10 06:53:00,
2013-04-10 02:58:00,56.2,51.1,29.86,North,8,8.0,8.0,83,0.00,,---,0.00,VWS V14.01,2013-04-10 06:58:00,
2013-04-10 03:00:00,55.9,50.8,29.86,SW,216,0.0,8.0,83,0.00,,---,0.00,VWS V14.01,2013-04-10 07:00:00,
2013-04-10 03:03:00,55.7,50.6,29.86,ENE,57,5.0,5.0,83,0.00,,---,0.00,VWS V14.01,2013-04-10 07:03:00,
2013-04-10 03:08:00,55.2,50.1,29.86,East,95,3.0,6.0,83,0.00,,---,0.00,VWS V14.01,2013-04-10 07:08:00,
2013-04-10 03:13:00,54.9,49.8,29.86,East,82,1.0,6.0,83,0.00,,---,0.00,VWS V14.01,2013-04-10 07:13:00,
2013-04-10 03:18:00,54.4,49.3,29.86,NE,40,1.0,6.0,83,0.00,,---,0.00,VWS V14.01,2013-04-10 07:18:00,
2013-04-10 03:23:00,54.1,49.4,29.85,North,4,2.0,6.0,84,0.00,,---,0.00,VWS V14.01,2013-04-10 07:23:00,
2013-04-10 03:28:00,53.8,49.1,29.85,NE,49,3.0,6.0,84,0.00,,---,0.00,VWS V14.01,2013-04-10 07:28:00,
2013-04-10 03:30:00,53.6,48.9,29.85,ENE,60,0.0,6.0,84,0.00,,---,0.00,VWS V14.01,2013-04-10 07:30:00,
2013-04-10 03:33:00,53.5,48.8,29.85,SE,135,0.0,1.0,84,0.00,,---,0.00,VWS V14.01,2013-04-10 07:33:00,
2013-04-10 03:38:00,53.2,48.5,29.85,ENE,74,2.0,3.0,84,0.00,,---,0.00,VWS V14.01,2013-04-10 07:38:00,
2013-04-10 03:43:00,53.1,48.7,29.85,SSE,157,0.0,5.0,85,0.00,,---,0.00,VWS V14.01,2013-04-10 07:43:00,
2013-04-10 03:48:00,52.8,48.1,29.86,NNE,29,5.0,8.0,84,0.00,,---,0.00,VWS V14.01,2013-04-10 07:48:00,
2013-04-10 03:53:00,52.6,48.2,29.86,ENE,61,1.0,8.0,85,0.00,,---,0.00,VWS V14.01,2013-04-10 07:53:00,
2013-04-10 03:58:00,52.4,47.7,29.85,NE,43,3.0,8.0,84,0.00,,---,0.00,VWS V14.01,2013-04-10 07:58:00,
2013-04-10 04:00:00,52.3,47.9,29.85,NE,46,1.0,8.0,85,0.00,,---,0.00,VWS V14.01,2013-04-10 08:00:00,
2013-04-10 04:03:00,52.2,47.8,29.85,WSW,238,0.0,2.0,85,0.00,,---,0.00,VWS V14.01,2013-04-10 08:03:00,
2013-04-10 04:08:00,52.1,47.7,29.86,NE,46,1.0,4.0,85,0.00,,---,0.00,VWS V14.01,2013-04-10 08:08:00,
2013-04-10 04:13:00,52.0,47.6,29.85,ESE,117,0.0,4.0,85,0.00,,---,0.00,VWS V14.01,2013-04-10 08:13:00,
2013-04-10 04:18:00,52.0,47.6,29.85,ENE,58,0.0,4.0,85,0.00,,---,0.00,VWS V14.01,2013-04-10 08:18:00,
2013-04-10 04:23:00,51.8,47.4,29.85,NE,55,3.0,5.0,85,0.00,,---,0.00,VWS V14.01,2013-04-10 08:23:00,
2013-04-10 04:28:00,51.6,47.6,29.85,SE,135,2.0,7.0,86,0.00,,---,0.00,VWS V14.01,2013-04-10 08:28:00,
2013-04-10 04:30:00,51.5,47.5,29.85,ESE,111,3.0,7.0,86,0.00,,---,0.00,VWS V14.01,2013-04-10 08:30:00,
2013-04-10 04:33:00,51.4,47.4,29.85,ENE,68,1.0,6.0,86,0.00,,---,0.00,VWS V14.01,2013-04-10 08:33:00,
2013-04-10 04:38:00,51.3,47.3,29.85,SE,129,1.0,6.0,86,0.00,,---,0.00,VWS V14.01,2013-04-10 08:38:00,
2013-04-10 04:43:00,51.2,47.5,29.84,East,97,0.0,6.0,87,0.00,,---,0.00,VWS V14.01,2013-04-10 08:43:00,
2013-04-10 04:48:00,51.1,47.4,29.85,ENE,67,0.0,6.0,87,0.00,,---,0.00,VWS V14.01,2013-04-10 08:48:00,
2013-04-10 04:53:00,51.1,47.4,29.85,NE,56,2.0,6.0,87,0.00,,---,0.00,VWS V14.01,2013-04-10 08:53:00,
2013-04-10 04:58:00,51.1,47.4,29.85,SE,135,0.0,6.0,87,0.00,,---,0.00,VWS V14.01,2013-04-10 08:58:00,
2013-04-10 05:00:00,51.1,47.4,29.85,SE,142,1.0,6.0,87,0.00,,---,0.00,VWS V14.01,2013-04-10 09:00:00,
2013-04-10 05:03:00,51.0,47.3,29.85,North,352,1.0,3.0,87,0.00,,---,0.00,VWS V14.01,2013-04-10 09:03:00,
2013-04-10 05:08:00,51.0,47.3,29.85,NE,55,0.0,3.0,87,0.00,,---,0.00,VWS V14.01,2013-04-10 09:08:00,
2013-04-10 05:13:00,51.0,47.3,29.85,East,79,2.0,3.0,87,0.00,,---,0.00,VWS V14.01,2013-04-10 09:13:00,
2013-04-10 05:18:00,51.0,47.3,29.85,ENE,63,0.0,4.0,87,0.00,,---,0.00,VWS V14.01,2013-04-10 09:18:00,
2013-04-10 05:23:00,51.1,47.4,29.85,ENE,65,0.0,4.0,87,0.00,,---,0.00,VWS V14.01,2013-04-10 09:23:00,
2013-04-10 05:28:00,51.1,47.4,29.85,East,82,1.0,4.0,87,0.00,,---,0.00,VWS V14.01,2013-04-10 09:28:00,
2013-04-10 05:30:00,51.1,47.4,29.85,NNE,23,1.0,4.0,87,0.00,,---,0.00,VWS V14.01,2013-04-10 09:30:00,
2013-04-10 05:33:00,51.1,47.4,29.85,ENE,59,1.0,5.0,87,0.00,,---,0.00,VWS V14.01,2013-04-10 09:33:00,
2013-04-10 05:38:00,51.1,47.7,29.85,ESE,115,0.0,5.0,88,0.00,,---,0.00,VWS V14.01,2013-04-10 09:38:00,
2013-04-10 05:43:00,51.2,47.5,29.85,ENE,63,2.0,5.0,87,0.00,,---,0.00,VWS V14.01,2013-04-10 09:43:00,
2013-04-10 05:48:00,51.0,47.3,29.84,ENE,61,0.0,5.0,87,0.00,,---,0.00,VWS V14.01,2013-04-10 09:48:00,
2013-04-10 05:54:00,50.9,47.2,29.84,ESE,107,1.0,5.0,87,0.00,,---,0.00,VWS V14.01,2013-04-10 09:54:00,
2013-04-10 05:59:00,50.8,47.4,29.84,NW,325,0.0,5.0,88,0.00,,---,0.00,VWS V14.01,2013-04-10 09:59:00,
2013-04-10 06:00:00,50.8,47.4,29.84,ESE,115,2.0,5.0,88,0.00,,---,0.00,VWS V14.01,2013-04-10 10:00:00,
2013-04-10 06:04:00,50.8,47.4,29.84,ESE,102,1.0,3.0,88,0.00,,---,0.00,VWS V14.01,2013-04-10 10:04:00,
2013-04-10 06:09:00,50.7,47.3,29.83,ENE,68,0.0,5.0,88,0.00,,---,0.00,VWS V14.01,2013-04-10 10:09:00,
2013-04-10 06:14:00,50.7,47.3,29.83,ESE,122,1.0,5.0,88,0.00,,---,0.00,VWS V14.01,2013-04-10 10:14:00,
2013-04-10 06:19:00,50.6,47.5,29.83,East,82,1.0,5.0,89,0.00,,---,0.00,VWS V14.01,2013-04-10 10:19:00,
2013-04-10 06:24:00,50.5,47.4,29.83,ESE,115,1.0,5.0,89,0.00,,---,0.00,VWS V14.01,2013-04-10 10:24:00,
2013-04-10 06:29:00,50.4,47.3,29.83,SE,129,1.0,5.0,89,0.00,,---,0.00,VWS V14.01,2013-04-10 10:29:00,
2013-04-10 06:30:00,50.4,47.3,29.83,ENE,68,0.0,5.0,89,0.00,,---,0.00,VWS V14.01,2013-04-10 10:30:00,
2013-04-10 06:34:00,50.3,47.2,29.83,West,259,0.0,3.0,89,0.00,,---,0.00,VWS V14.01,2013-04-10 10:34:00,
2013-04-10 06:39:00,50.3,47.5,29.84,SE,124,1.0,5.0,90,0.00,,---,0.00,VWS V14.01,2013-04-10 10:39:00,
2013-04-10 06:44:00,50.3,47.5,29.83,NE,41,0.0,5.0,90,0.02,,---,0.02,VWS V14.01,2013-04-10 10:44:00,
2013-04-10 06:49:00,50.3,47.8,29.83,ESE,102,1.0,5.0,91,0.02,,---,0.02,VWS V14.01,2013-04-10 10:49:00,
2013-04-10 06:54:00,50.1,47.6,29.83,ESE,104,1.0,5.0,91,0.02,,---,0.02,VWS V14.01,2013-04-10 10:54:00,
2013-04-10 06:59:00,50.1,47.9,29.83,North,8,1.0,5.0,92,0.02,,---,0.02,VWS V14.01,2013-04-10 10:59:00,
2013-04-10 07:00:00,50.1,47.9,29.83,NNW,341,0.0,5.0,92,0.02,,---,0.02,VWS V14.01,2013-04-10 11:00:00,
2013-04-10 07:04:00,50.1,47.9,29.82,East,94,0.0,3.0,92,0.02,,---,0.02,VWS V14.01,2013-04-10 11:04:00,
2013-04-10 07:09:00,50.0,48.1,29.82,ESE,120,1.0,5.0,93,0.02,,---,0.02,VWS V14.01,2013-04-10 11:09:00,
2013-04-10 07:14:00,50.1,48.2,29.82,East,86,3.0,5.0,93,0.02,,---,0.02,VWS V14.01,2013-04-10 11:14:00,
2013-04-10 07:19:00,50.1,48.2,29.82,SE,124,0.0,5.0,93,0.02,,---,0.02,VWS V14.01,2013-04-10 11:19:00,
2013-04-10 07:24:00,50.1,48.2,29.83,ENE,63,1.0,5.0,93,0.02,,---,0.02,VWS V14.01,2013-04-10 11:24:00,
2013-04-10 07:29:00,50.1,48.2,29.82,East,79,1.0,5.0,93,0.02,,---,0.02,VWS V14.01,2013-04-10 11:29:00,
2013-04-10 07:30:00,50.1,48.2,29.82,East,91,0.0,5.0,93,0.02,,---,0.02,VWS V14.01,2013-04-10 11:30:00,
2013-04-10 07:34:00,50.1,48.2,29.82,ENE,77,1.0,3.0,93,0.02,,---,0.02,VWS V14.01,2013-04-10 11:34:00,
2013-04-10 07:39:00,50.1,48.2,29.82,SE,140,0.0,3.0,93,0.02,,---,0.02,VWS V14.01,2013-04-10 11:39:00,
2013-04-10 07:44:00,50.1,48.2,29.82,SE,135,0.0,3.0,93,0.02,,---,0.02,VWS V14.01,2013-04-10 11:44:00,
2013-04-10 07:49:00,50.1,48.2,29.82,ENE,64,2.0,3.0,93,0.02,,---,0.02,VWS V14.01,2013-04-10 11:49:00,
2013-04-10 07:54:00,50.2,48.3,29.82,SE,129,1.0,5.0,93,0.02,,---,0.02,VWS V14.01,2013-04-10 11:54:00,
2013-04-10 07:59:00,50.3,48.4,29.82,SE,124,2.0,5.0,93,0.02,,---,0.02,VWS V14.01,2013-04-10 11:59:00,
2013-04-10 08:00:00,50.3,48.4,29.82,ESE,117,1.0,5.0,93,0.02,,---,0.02,VWS V14.01,2013-04-10 12:00:00,
2013-04-10 08:04:00,50.3,48.4,29.82,East,91,2.0,3.0,93,0.00,,---,0.02,VWS V14.01,2013-04-10 12:04:00,
2013-04-10 08:09:00,50.4,48.7,29.81,NE,49,1.0,3.0,94,0.00,,---,0.02,VWS V14.01,2013-04-10 12:09:00,
2013-04-10 08:14:00,50.4,48.5,29.82,South,184,0.0,3.0,93,0.00,,---,0.02,VWS V14.01,2013-04-10 12:14:00,
2013-04-10 08:19:00,50.5,48.6,29.82,East,98,1.0,3.0,93,0.00,,---,0.02,VWS V14.01,2013-04-10 12:19:00,
2013-04-10 08:24:00,50.5,48.6,29.82,ESE,120,0.0,4.0,93,0.01,,---,0.03,VWS V14.01,2013-04-10 12:24:00,
2013-04-10 08:29:00,50.4,48.5,29.82,ESE,121,1.0,4.0,93,0.01,,---,0.03,VWS V14.01,2013-04-10 12:29:00,
2013-04-10 08:30:00,50.4,48.5,29.82,ESE,103,0.0,4.0,93,0.01,,---,0.03,VWS V14.01,2013-04-10 12:30:00,
2013-04-10 08:34:00,50.5,48.6,29.82,NE,55,2.0,2.0,93,0.01,,---,0.03,VWS V14.01,2013-04-10 12:34:00,
2013-04-10 08:39:00,50.5,48.6,29.82,ENE,61,0.0,2.0,93,0.01,,---,0.03,VWS V14.01,2013-04-10 12:39:00,
2013-04-10 08:44:00,50.5,48.6,29.83,NE,38,0.0,2.0,93,0.01,,---,0.03,VWS V14.01,2013-04-10 12:44:00,
2013-04-10 08:49:00,50.4,48.5,29.83,East,91,0.0,2.0,93,0.09,,---,0.11,VWS V14.01,2013-04-10 12:49:00,
2013-04-10 08:54:00,50.3,48.4,29.83,NNW,342,0.0,3.0,93,0.09,,---,0.11,VWS V14.01,2013-04-10 12:54:00,
2013-04-10 08:59:00,50.3,48.6,29.83,ENE,71,0.0,3.0,94,0.09,,---,0.11,VWS V14.01,2013-04-10 12:59:00,
2013-04-10 09:00:00,50.3,48.6,29.83,ESE,117,0.0,3.0,94,0.09,,---,0.11,VWS V14.01,2013-04-10 13:00:00,
2013-04-10 09:04:00,50.4,48.7,29.83,ENE,77,1.0,3.0,94,0.09,,---,0.11,VWS V14.01,2013-04-10 13:04:00,
2013-04-10 09:09:00,50.4,48.7,29.83,ENE,63,2.0,3.0,94,0.09,,---,0.11,VWS V14.01,2013-04-10 13:09:00,
2013-04-10 09:14:00,50.5,48.8,29.83,North,5,2.0,6.0,94,0.09,,---,0.11,VWS V14.01,2013-04-10 13:14:00,
2013-04-10 09:20:00,50.3,48.6,29.83,ENE,69,2.0,7.0,94,0.09,,---,0.11,VWS V14.01,2013-04-10 13:20:00,
2013-04-10 09:25:00,50.3,48.6,29.83,North,359,1.0,7.0,94,0.09,,---,0.11,VWS V14.01,2013-04-10 13:25:00,
2013-04-10 09:30:00,50.3,48.6,29.83,ENE,77,2.0,8.0,94,0.09,,---,0.11,VWS V14.01,2013-04-10 13:30:00,
2013-04-10 09:35:00,50.2,48.5,29.83,NNW,339,1.0,3.0,94,0.08,,---,0.11,VWS V14.01,2013-04-10 13:35:00,
2013-04-10 09:40:00,50.3,48.6,29.83,NE,37,0.0,5.0,94,0.08,,---,0.11,VWS V14.01,2013-04-10 13:40:00,
2013-04-10 09:45:00,50.3,48.6,29.83,NNW,348,1.0,5.0,94,0.08,,---,0.11,VWS V14.01,2013-04-10 13:45:00,
2013-04-10 09:50:00,50.3,48.6,29.83,North,6,2.0,5.0,94,0.08,,---,0.11,VWS V14.01,2013-04-10 13:50:00,
2013-04-10 09:55:00,50.4,48.7,29.83,SE,127,2.0,5.0,94,0.08,,---,0.11,VWS V14.01,2013-04-10 13:55:00,
2013-04-10 10:00:00,50.5,48.8,29.83,North,359,1.0,5.0,94,0.08,,---,0.11,VWS V14.01,2013-04-10 14:00:00,
2013-04-10 10:05:00,50.5,48.8,29.83,NNE,23,1.0,5.0,94,0.00,,---,0.11,VWS V14.01,2013-04-10 14:05:00,
2013-04-10 10:10:00,50.4,48.7,29.83,ENE,67,4.0,5.0,94,0.01,,---,0.12,VWS V14.01,2013-04-10 14:10:00,
2013-04-10 10:15:00,50.3,48.6,29.82,ENE,77,1.0,5.0,94,0.05,,---,0.16,VWS V14.01,2013-04-10 14:15:00,
2013-04-10 10:20:00,50.3,48.6,29.83,ESE,113,2.0,5.0,94,0.05,,---,0.16,VWS V14.01,2013-04-10 14:20:00,
2013-04-10 10:25:00,50.4,48.7,29.82,East,84,1.0,5.0,94,0.05,,---,0.16,VWS V14.01,2013-04-10 14:25:00,
2013-04-10 10:30:00,50.5,49.1,29.83,NE,51,3.0,5.0,95,0.05,,---,0.16,VWS V14.01,2013-04-10 14:30:00,
2013-04-10 10:35:00,50.6,48.9,29.83,ESE,115,2.0,5.0,94,0.05,,---,0.16,VWS V14.01,2013-04-10 14:35:00,
2013-04-10 10:40:00,50.7,49.3,29.83,ESE,103,3.0,5.0,95,0.05,,---,0.16,VWS V14.01,2013-04-10 14:40:00,
2013-04-10 10:45:00,50.7,49.0,29.83,NE,37,3.0,7.0,94,0.05,,---,0.16,VWS V14.01,2013-04-10 14:45:00,
2013-04-10 10:50:00,50.8,49.4,29.82,ENE,60,1.0,7.0,95,0.05,,---,0.16,VWS V14.01,2013-04-10 14:50:00,
2013-04-10 10:55:00,51.1,49.7,29.82,SE,143,1.0,7.0,95,0.05,,---,0.16,VWS V14.01,2013-04-10 14:55:00,
2013-04-10 11:00:00,51.2,49.8,29.82,East,90,0.0,7.0,95,0.05,,---,0.16,VWS V14.01,2013-04-10 15:00:00,
2013-04-10 11:05:00,51.4,50.0,29.82,ENE,58,0.0,3.0,95,0.05,,---,0.16,VWS V14.01,2013-04-10 15:05:00,
2013-04-10 11:10:00,51.7,50.3,29.82,ENE,61,1.0,3.0,95,0.05,,---,0.16,VWS V14.01,2013-04-10 15:10:00,
2013-04-10 11:15:00,51.6,49.9,29.83,East,92,0.0,4.0,94,0.05,,---,0.16,VWS V14.01,2013-04-10 15:15:00,
2013-04-10 11:20:00,51.9,50.2,29.83,East,96,0.0,4.0,94,0.05,,---,0.16,VWS V14.01,2013-04-10 15:20:00,
2013-04-10 11:25:00,52.1,50.7,29.83,North,8,2.0,4.0,95,0.05,,---,0.16,VWS V14.01,2013-04-10 15:25:00,
2013-04-10 11:30:00,52.1,50.4,29.83,NE,39,0.0,4.0,94,0.05,,---,0.16,VWS V14.01,2013-04-10 15:30:00,
2013-04-10 11:35:00,52.2,50.5,29.82,ESE,106,1.0,3.0,94,0.00,,---,0.16,VWS V14.01,2013-04-10 15:35:00,
2013-04-10 11:40:00,52.5,50.8,29.82,NE,51,0.0,3.0,94,0.00,,---,0.16,VWS V14.01,2013-04-10 15:40:00,
2013-04-10 11:45:00,52.9,51.2,29.82,East,79,0.0,3.0,94,0.00,,---,0.16,VWS V14.01,2013-04-10 15:45:00,
2013-04-10 11:50:00,53.2,51.5,29.82,ENE,65,1.0,3.0,94,0.00,,---,0.16,VWS V14.01,2013-04-10 15:50:00,
2013-04-10 11:55:00,53.3,51.3,29.82,NE,49,0.0,4.0,93,0.00,,---,0.16,VWS V14.01,2013-04-10 15:55:00,
2013-04-10 12:00:00,53.3,51.3,29.82,NW,309,1.0,1.0,93,0.00,,---,0.16,VWS V14.01,2013-04-10 16:00:00,
2013-04-10 12:05:00,53.5,51.5,29.82,ENE,68,0.0,3.0,93,0.00,,---,0.16,VWS V14.01,2013-04-10 16:05:00,
2013-04-10 12:10:00,53.6,51.6,29.82,North,4,1.0,3.0,93,0.00,,---,0.16,VWS V14.01,2013-04-10 16:10:00,
2013-04-10 12:15:00,53.8,51.8,29.82,East,79,0.0,3.0,93,0.00,,---,0.16,VWS V14.01,2013-04-10 16:15:00,
2013-04-10 12:20:00,53.7,51.7,29.83,NNW,330,7.0,7.0,93,0.00,,---,0.16,VWS V14.01,2013-04-10 16:20:00,
2013-04-10 12:25:00,53.3,51.0,29.83,NNW,342,3.0,9.0,92,0.00,,---,0.16,VWS V14.01,2013-04-10 16:25:00,
2013-04-10 12:30:00,52.8,50.5,29.84,NNE,13,6.0,7.0,92,0.00,,---,0.16,VWS V14.01,2013-04-10 16:30:00,
2013-04-10 12:35:00,52.5,50.2,29.84,NNE,19,5.0,9.0,92,0.00,,---,0.16,VWS V14.01,2013-04-10 16:35:00,
2013-04-10 12:40:00,52.1,49.8,29.84,NNW,343,7.0,9.0,92,0.00,,---,0.16,VWS V14.01,2013-04-10 16:40:00,
2013-04-10 12:45:00,52.0,50.0,29.84,ENE,76,1.0,9.0,93,0.00,,---,0.16,VWS V14.01,2013-04-10 16:45:00,
2013-04-10 12:50:00,52.0,50.0,29.84,ENE,65,2.0,9.0,93,0.00,,---,0.16,VWS V14.01,2013-04-10 16:50:00,
2013-04-10 12:56:00,51.7,49.5,29.84,NNW,332,5.0,10.0,92,0.00,,---,0.16,VWS V14.01,2013-04-10 16:56:00,
2013-04-10 13:00:00,51.3,49.1,29.84,NNW,332,4.0,10.0,92,0.00,,---,0.16,VWS V14.01,2013-04-10 17:00:00,
2013-04-10 13:01:00,51.3,49.1,29.84,NNW,342,4.0,6.0,92,0.00,,---,0.16,VWS V14.01,2013-04-10 17:01:00,
2013-04-10 13:06:00,51.1,49.2,29.83,NE,56,4.0,6.0,93,0.00,,---,0.16,VWS V14.01,2013-04-10 17:06:00,
2013-04-10 13:11:00,50.9,49.0,29.83,ENE,74,2.0,7.0,93,0.00,,---,0.16,VWS V14.01,2013-04-10 17:11:00,
2013-04-10 13:16:00,50.6,48.7,29.82,NW,320,1.0,7.0,93,0.00,,---,0.16,VWS V14.01,2013-04-10 17:16:00,
2013-04-10 13:21:00,50.5,48.6,29.82,North,360,0.0,8.0,93,0.03,,---,0.19,VWS V14.01,2013-04-10 17:21:00,
2013-04-10 13:26:00,50.2,48.3,29.82,East,80,0.0,8.0,93,0.03,,---,0.19,VWS V14.01,2013-04-10 17:26:00,
2013-04-10 13:30:00,50.3,48.6,29.82,NNE,16,3.0,8.0,94,0.03,,---,0.19,VWS V14.01,2013-04-10 17:30:00,
2013-04-10 13:31:00,50.3,48.6,29.82,NNW,347,2.0,4.0,94,0.03,,---,0.19,VWS V14.01,2013-04-10 17:31:00,
2013-04-10 13:36:00,50.0,48.1,29.82,ENE,72,3.0,6.0,93,0.03,,---,0.19,VWS V14.01,2013-04-10 17:36:00,
2013-04-10 13:41:00,50.2,48.5,29.81,NNE,26,2.0,8.0,94,0.03,,---,0.19,VWS V14.01,2013-04-10 17:41:00,
2013-04-10 13:46:00,49.9,48.2,29.81,ENE,75,0.0,8.0,94,0.03,,---,0.19,VWS V14.01,2013-04-10 17:46:00,
2013-04-10 13:51:00,49.9,48.2,29.81,North,352,2.0,8.0,94,0.03,,---,0.19,VWS V14.01,2013-04-10 17:51:00,
2013-04-10 13:56:00,49.7,48.0,29.81,NNE,13,0.0,8.0,94,0.03,,---,0.19,VWS V14.01,2013-04-10 17:56:00,
2013-04-10 14:00:00,49.7,48.0,29.82,North,352,8.0,8.0,94,0.04,,---,0.20,VWS V14.01,2013-04-10 18:00:00,
2013-04-10 14:01:00,49.7,48.0,29.83,NNW,329,6.0,11.0,94,0.04,,---,0.20,VWS V14.01,2013-04-10 18:01:00,
2013-04-10 14:06:00,49.5,47.8,29.84,North,11,4.0,11.0,94,0.04,,---,0.20,VWS V14.01,2013-04-10 18:06:00,
2013-04-10 14:11:00,49.3,47.7,29.85,North,355,3.0,11.0,94,0.04,,---,0.20,VWS V14.01,2013-04-10 18:11:00,
2013-04-10 14:16:00,49.2,47.8,29.83,ENE,67,1.0,11.0,95,0.05,,---,0.21,VWS V14.01,2013-04-10 18:16:00,
2013-04-10 14:21:00,49.1,47.7,29.82,NNE,18,3.0,11.0,95,0.08,,---,0.24,VWS V14.01,2013-04-10 18:21:00,
2013-04-10 14:26:00,48.9,47.2,29.81,ESE,111,2.0,11.0,94,0.09,,---,0.25,VWS V14.01,2013-04-10 18:26:00,
2013-04-10 14:30:00,49.0,47.6,29.79,SE,146,3.0,11.0,95,0.10,,---,0.26,VWS V14.01,2013-04-10 18:30:00,
2013-04-10 14:31:00,49.0,47.6,29.81,South,173,0.0,3.0,95,0.07,,---,0.26,VWS V14.01,2013-04-10 18:31:00,
2013-04-10 14:37:00,49.0,47.6,29.80,NNE,25,0.0,3.0,95,0.07,,---,0.26,VWS V14.01,2013-04-10 18:37:00,
2013-04-10 14:42:00,49.0,47.6,29.80,NNE,18,2.0,4.0,95,0.07,,---,0.26,VWS V14.01,2013-04-10 18:42:00,
2013-04-10 14:47:00,49.0,47.6,29.80,NE,34,0.0,4.0,95,0.07,,---,0.26,VWS V14.01,2013-04-10 18:47:00,
2013-04-10 14:52:00,49.1,47.7,29.80,ENE,68,0.0,4.0,95,0.07,,---,0.26,VWS V14.01,2013-04-10 18:52:00,
2013-04-10 14:57:00,49.3,47.9,29.80,NNW,329,0.0,4.0,95,0.07,,---,0.26,VWS V14.01,2013-04-10 18:57:00,
2013-04-10 15:00:00,49.2,47.8,29.80,NNE,26,0.0,4.0,95,0.07,,---,0.26,VWS V14.01,2013-04-10 19:00:00,
2013-04-10 15:02:00,49.3,47.9,29.80,NNE,26,0.0,0.0,95,0.06,,---,0.26,VWS V14.01,2013-04-10 19:02:00,
2013-04-10 15:07:00,49.6,48.5,29.79,SE,133,2.0,3.0,96,0.06,,---,0.26,VWS V14.01,2013-04-10 19:07:00,
2013-04-10 15:12:00,50.1,49.0,29.80,ESE,120,3.0,6.0,96,0.06,,---,0.26,VWS V14.01,2013-04-10 19:12:00,
2013-04-10 15:17:00,50.5,49.4,29.81,NNE,16,2.0,6.0,96,0.06,,---,0.26,VWS V14.01,2013-04-10 19:17:00,
2013-04-10 15:22:00,50.5,49.1,29.81,ESE,107,5.0,6.0,95,0.06,,---,0.26,VWS V14.01,2013-04-10 19:22:00,
2013-04-10 15:27:00,50.6,49.2,29.81,East,82,1.0,6.0,95,0.06,,---,0.26,VWS V14.01,2013-04-10 19:27:00,
2013-04-10 15:30:00,50.8,49.4,29.81,SSE,148,2.0,6.0,95,0.06,,---,0.26,VWS V14.01,2013-04-10 19:30:00,
2013-04-10 15:32:00,50.8,49.4,29.81,ESE,115,0.0,3.0,95,0.00,,---,0.26,VWS V14.01,2013-04-10 19:32:00,
2013-04-10 15:37:00,50.9,49.5,29.81,ESE,109,0.0,3.0,95,0.00,,---,0.26,VWS V14.01,2013-04-10 19:37:00,
2013-04-10 15:42:00,50.9,49.5,29.81,NNE,32,0.0,3.0,95,0.00,,---,0.26,VWS V14.01,2013-04-10 19:42:00,
2013-04-10 15:47:00,50.8,49.1,29.81,NNW,328,3.0,3.0,94,0.00,,---,0.26,VWS V14.01,2013-04-10 19:47:00,
2013-04-10 15:52:00,50.6,48.9,29.82,NNW,343,3.0,5.0,94,0.00,,---,0.26,VWS V14.01,2013-04-10 19:52:00,
2013-04-10 15:57:00,50.6,49.2,29.82,North,354,5.0,5.0,95,0.00,,---,0.26,VWS V14.01,2013-04-10 19:57:00,
2013-04-10 16:00:00,50.6,49.2,29.82,North,353,2.0,6.0,95,0.00,,---,0.26,VWS V14.01,2013-04-10 20:00:00,
2013-04-10 16:02:00,50.6,49.2,29.83,NNE,20,1.0,3.0,95,0.00,,---,0.26,VWS V14.01,2013-04-10 20:02:00,
2013-04-10 16:07:00,50.4,49.0,29.83,North,359,3.0,5.0,95,0.00,,---,0.26,VWS V14.01,2013-04-10 20:07:00,
2013-04-10 16:12:00,50.3,48.9,29.83,NNE,12,2.0,5.0,95,0.00,,---,0.26,VWS V14.01,2013-04-10 20:12:00,
2013-04-10 16:17:00,50.2,48.8,29.82,NNE,26,1.0,5.0,95,0.00,,---,0.26,VWS V14.01,2013-04-10 20:17:00,
2013-04-10 16:22:00,50.1,48.7,29.83,NNW,340,6.0,6.0,95,0.01,,---,0.27,VWS V14.01,2013-04-10 20:22:00,
2013-04-10 16:27:00,49.9,48.5,29.83,NNW,342,6.0,11.0,95,0.04,,---,0.30,VWS V14.01,2013-04-10 20:27:00,
2013-04-10 16:30:00,49.7,48.3,29.83,NNW,345,12.0,13.0,95,0.04,,---,0.30,VWS V14.01,2013-04-10 20:30:00,
2013-04-10 16:32:00,49.6,48.2,29.82,NNW,328,9.0,12.0,95,0.04,,---,0.30,VWS V14.01,2013-04-10 20:32:00,
2013-04-10 16:37:00,49.3,47.9,29.82,North,355,10.0,19.0,95,0.05,,---,0.31,VWS V14.01,2013-04-10 20:37:00,
2013-04-10 16:42:00,49.0,47.6,29.83,NNW,333,9.0,19.0,95,0.06,,---,0.32,VWS V14.01,2013-04-10 20:42:00,
2013-04-10 16:47:00,48.9,47.5,29.84,NNW,346,7.0,19.0,95,0.07,,---,0.33,VWS V14.01,2013-04-10 20:47:00,
2013-04-10 16:52:00,48.7,47.3,29.86,NNW,336,3.0,19.0,95,0.07,,---,0.33,VWS V14.01,2013-04-10 20:52:00,
2013-04-10 16:57:00,48.6,47.2,29.87,NNE,19,6.0,19.0,95,0.09,,---,0.35,VWS V14.01,2013-04-10 20:57:00,
2013-04-10 17:00:00,48.5,47.1,29.86,North,350,4.0,19.0,95,0.10,,---,0.36,VWS V14.01,2013-04-10 21:00:00,
2013-04-10 17:03:00,48.5,47.1,29.86,NNE,25,2.0,11.0,95,0.10,,---,0.36,VWS V14.01,2013-04-10 21:03:00,
2013-04-10 17:08:00,48.4,47.0,29.87,NNW,329,2.0,11.0,95,0.11,,---,0.37,VWS V14.01,2013-04-10 21:08:00,
2013-04-10 17:13:00,48.4,47.0,29.88,North,359,3.0,11.0,95,0.13,,---,0.39,VWS V14.01,2013-04-10 21:13:00,
2013-04-10 17:18:00,48.3,46.9,29.87,NNE,30,2.0,11.0,95,0.14,,---,0.40,VWS V14.01,2013-04-10 21:18:00,
2013-04-10 17:23:00,48.4,47.0,29.86,ENE,77,0.0,11.0,95,0.16,,---,0.42,VWS V14.01,2013-04-10 21:23:00,
2013-04-10 17:28:00,48.3,46.9,29.85,NNE,22,0.0,11.0,95,0.18,,---,0.44,VWS V14.01,2013-04-10 21:28:00,
2013-04-10 17:30:00,48.3,46.9,29.84,NNW,327,2.0,11.0,95,0.19,,---,0.45,VWS V14.01,2013-04-10 21:30:00,
2013-04-10 17:33:00,48.3,46.9,29.83,NNE,13,6.0,6.0,95,0.16,,---,0.46,VWS V14.01,2013-04-10 21:33:00,
2013-04-10 17:38:00,48.2,47.1,29.83,NNE,28,2.0,7.0,96,0.18,,---,0.48,VWS V14.01,2013-04-10 21:38:00,
2013-04-10 17:43:00,48.1,47.0,29.83,North,5,2.0,9.0,96,0.20,,---,0.50,VWS V14.01,2013-04-10 21:43:00,
2013-04-10 17:48:00,48.1,47.0,29.82,ENE,63,3.0,9.0,96,0.22,,---,0.52,VWS V14.01,2013-04-10 21:48:00,
2013-04-10 17:53:00,47.9,46.8,29.80,North,355,3.0,9.0,96,0.24,,---,0.54,VWS V14.01,2013-04-10 21:53:00,
2013-04-10 17:58:00,47.7,46.6,29.73,ENE,68,10.0,11.0,96,0.25,,---,0.55,VWS V14.01,2013-04-10 21:58:00,
2013-04-10 18:00:00,47.6,46.2,29.73,NNE,14,8.0,11.0,95,0.26,,---,0.56,VWS V14.01,2013-04-10 22:00:00,
2013-04-10 18:03:00,47.5,46.4,29.77,ENE,61,1.0,13.0,96,0.20,,---,0.56,VWS V14.01,2013-04-10 22:03:00,
2013-04-10 18:08:00,47.0,45.7,29.84,ESE,107,0.0,15.0,95,0.20,,---,0.56,VWS V14.01,2013-04-10 22:08:00,
2013-04-10 18:13:00,46.9,45.5,29.84,NNE,23,3.0,15.0,95,0.20,,---,0.56,VWS V14.01,2013-04-10 22:13:00,
2013-04-10 18:18:00,46.8,45.5,29.83,North,359,2.0,15.0,95,0.20,,---,0.56,VWS V14.01,2013-04-10 22:18:00,
2013-04-10 18:23:00,46.6,45.2,29.84,NNE,20,2.0,15.0,95,0.20,,---,0.56,VWS V14.01,2013-04-10 22:23:00,
2013-04-10 18:28:00,46.5,45.2,29.83,ENE,71,0.0,15.0,95,0.20,,---,0.56,VWS V14.01,2013-04-10 22:28:00,
2013-04-10 18:30:00,46.5,45.2,29.84,East,86,2.0,15.0,95,0.20,,---,0.56,VWS V14.01,2013-04-10 22:30:00,
2013-04-10 18:33:00,46.4,45.0,29.84,NE,47,1.0,3.0,95,0.11,,---,0.56,VWS V14.01,2013-04-10 22:33:00,
2013-04-10 18:38:00,46.4,45.0,29.84,NNW,342,3.0,5.0,95,0.11,,---,0.56,VWS V14.01,2013-04-10 22:38:00,
2013-04-10 18:43:00,46.4,45.0,29.84,NNW,330,6.0,7.0,95,0.11,,---,0.56,VWS V14.01,2013-04-10 22:43:00,
2013-04-10 18:48:00,46.4,45.0,29.84,NNW,344,8.0,12.0,95,0.11,,---,0.56,VWS V14.01,2013-04-10 22:48:00,
2013-04-10 18:53:00,46.3,45.0,29.85,North,353,7.0,12.0,95,0.11,,---,0.56,VWS V14.01,2013-04-10 22:53:00,
2013-04-10 18:58:00,46.2,44.8,29.85,North,8,10.0,12.0,95,0.11,,---,0.56,VWS V14.01,2013-04-10 22:58:00,
2013-04-10 19:00:00,46.2,44.8,29.85,NNW,335,6.0,12.0,95,0.11,,---,0.56,VWS V14.01,2013-04-10 23:00:00,
2013-04-10 19:03:00,46.1,44.8,29.85,North,352,9.0,14.0,95,0.00,,---,0.56,VWS V14.01,2013-04-10 23:03:00,
2013-04-10 19:08:00,46.1,44.8,29.85,North,350,5.0,14.0,95,0.00,,---,0.56,VWS V14.01,2013-04-10 23:08:00,
2013-04-10 19:13:00,46.0,44.7,29.86,NNW,340,2.0,14.0,95,0.00,,---,0.56,VWS V14.01,2013-04-10 23:13:00,
2013-04-10 19:18:00,46.0,44.7,29.86,North,6,2.0,14.0,95,0.00,,---,0.56,VWS V14.01,2013-04-10 23:18:00,
2013-04-10 19:23:00,46.1,44.8,29.86,NNW,343,3.0,14.0,95,0.00,,---,0.56,VWS V14.01,2013-04-10 23:23:00,
2013-04-10 19:28:00,46.0,44.7,29.87,North,354,4.0,14.0,95,0.00,,---,0.56,VWS V14.01,2013-04-10 23:28:00,
2013-04-10 19:30:00,46.0,44.7,29.87,NE,44,4.0,14.0,95,0.00,,---,0.56,VWS V14.01,2013-04-10 23:30:00,
2013-04-10 19:33:00,46.0,44.7,29.88,NNE,22,7.0,8.0,95,0.00,,---,0.56,VWS V14.01,2013-04-10 23:33:00,
2013-04-10 19:38:00,46.0,44.4,29.89,NE,44,2.0,8.0,94,0.00,,---,0.56,VWS V14.01,2013-04-10 23:38:00,
2013-04-10 19:43:00,45.9,44.3,29.89,NNE,30,1.0,8.0,94,0.00,,---,0.56,VWS V14.01,2013-04-10 23:43:00,
2013-04-10 19:48:00,45.9,44.3,29.89,NNE,14,1.0,8.0,94,0.00,,---,0.56,VWS V14.01,2013-04-10 23:48:00,
2013-04-10 19:53:00,45.9,44.3,29.89,North,350,3.0,8.0,94,0.00,,---,0.56,VWS V14.01,2013-04-10 23:53:00,
2013-04-10 19:58:00,45.8,44.5,29.89,NNW,338,2.0,8.0,95,0.00,,---,0.56,VWS V14.01,2013-04-10 23:58:00,
2013-04-10 20:00:00,45.8,44.5,29.89,ENE,69,2.0,8.0,95,0.00,,---,0.56,VWS V14.01,2013-04-11 00:00:00,
2013-04-10 20:03:00,45.8,44.5,29.88,SSE,159,1.0,2.0,95,0.00,,---,0.56,VWS V14.01,2013-04-11 00:03:00,
2013-04-10 20:08:00,45.8,44.5,29.88,ESE,117,4.0,4.0,95,0.00,,---,0.56,VWS V14.01,2013-04-11 00:08:00,
2013-04-10 20:13:00,45.7,44.3,29.88,East,86,1.0,5.0,95,0.00,,---,0.56,VWS V14.01,2013-04-11 00:13:00,
2013-04-10 20:18:00,45.7,44.3,29.87,NNE,25,2.0,6.0,95,0.00,,---,0.56,VWS V14.01,2013-04-11 00:18:00,
2013-04-10 20:23:00,45.6,44.2,29.86,SSE,168,3.0,7.0,95,0.00,,---,0.56,VWS V14.01,2013-04-11 00:23:00,
2013-04-10 20:28:00,45.6,44.2,29.87,East,91,2.0,8.0,95,0.00,,---,0.56,VWS V14.01,2013-04-11 00:28:00,
2013-04-10 20:30:00,45.6,44.2,29.87,ESE,113,0.0,8.0,95,0.00,,---,0.56,VWS V14.01,2013-04-11 00:30:00,
2013-04-10 20:33:00,45.6,44.2,29.87,East,80,0.0,3.0,95,0.00,,---,0.56,VWS V14.01,2013-04-11 00:33:00,
2013-04-10 20:38:00,45.6,44.2,29.88,ESE,115,0.0,4.0,95,0.00,,---,0.56,VWS V14.01,2013-04-11 00:38:00,
2013-04-10 20:43:00,45.5,44.2,29.88,North,352,1.0,6.0,95,0.01,,---,0.57,VWS V14.01,2013-04-11 00:43:00,
2013-04-10 20:48:00,45.6,44.2,29.88,ENE,72,0.0,6.0,95,0.02,,---,0.58,VWS V14.01,2013-04-11 00:48:00,
2013-04-10 20:53:00,45.6,44.2,29.88,NNW,338,2.0,6.0,95,0.03,,---,0.59,VWS V14.01,2013-04-11 00:53:00,
2013-04-10 20:58:00,45.5,44.2,29.88,East,96,2.0,6.0,95,0.03,,---,0.59,VWS V14.01,2013-04-11 00:58:00,
2013-04-10 21:00:00,45.6,44.2,29.87,ENE,68,7.0,7.0,95,0.03,,---,0.59,VWS V14.01,2013-04-11 01:00:00,
2013-04-10 21:03:00,45.5,44.2,29.85,North,355,2.0,7.0,95,0.03,,---,0.59,VWS V14.01,2013-04-11 01:03:00,
2013-04-10 21:08:00,45.5,44.2,29.85,East,79,1.0,7.0,95,0.04,,---,0.60,VWS V14.01,2013-04-11 01:08:00,
2013-04-10 21:13:00,45.5,44.2,29.86,North,355,2.0,7.0,95,0.04,,---,0.60,VWS V14.01,2013-04-11 01:13:00,
2013-04-10 21:18:00,45.4,44.0,29.86,NNE,20,3.0,9.0,95,0.04,,---,0.60,VWS V14.01,2013-04-11 01:18:00,
2013-04-10 21:23:00,45.4,44.0,29.84,SE,129,0.0,9.0,95,0.05,,---,0.61,VWS V14.01,2013-04-11 01:23:00,
2013-04-10 21:28:00,45.4,44.0,29.85,ENE,68,6.0,9.0,95,0.07,,---,0.63,VWS V14.01,2013-04-11 01:28:00,
2013-04-10 21:30:00,45.4,44.1,29.84,SE,143,5.0,9.0,95,0.07,,---,0.63,VWS V14.01,2013-04-11 01:30:00,
2013-04-10 21:33:00,45.3,44.0,29.83,ENE,64,2.0,9.0,95,0.08,,---,0.64,VWS V14.01,2013-04-11 01:33:00,
2013-04-10 21:38:00,45.3,44.0,29.82,East,89,4.0,10.0,95,0.08,,---,0.64,VWS V14.01,2013-04-11 01:38:00,
2013-04-10 21:44:00,45.3,44.0,29.81,SE,126,2.0,10.0,95,0.08,,---,0.64,VWS V14.01,2013-04-11 01:44:00,
2013-04-10 21:49:00,45.2,43.9,29.80,ESE,107,7.0,11.0,95,0.08,,---,0.64,VWS V14.01,2013-04-11 01:49:00,
2013-04-10 21:54:00,45.2,43.9,29.79,ENE,63,4.0,14.0,95,0.08,,---,0.64,VWS V14.01,2013-04-11 01:54:00,
2013-04-10 21:59:00,45.2,43.9,29.80,NNE,25,4.0,14.0,95,0.08,,---,0.64,VWS V14.01,2013-04-11 01:59:00,
2013-04-10 22:00:00,45.2,43.9,29.80,NE,54,14.0,14.0,95,0.08,,---,0.64,VWS V14.01,2013-04-11 02:00:00,
2013-04-10 22:04:00,45.2,43.9,29.82,East,82,8.0,14.0,95,0.06,,---,0.65,VWS V14.01,2013-04-11 02:04:00,
2013-04-10 22:09:00,45.1,43.8,29.83,ENE,63,3.0,14.0,95,0.06,,---,0.65,VWS V14.01,2013-04-11 02:09:00,
2013-04-10 22:14:00,45.1,43.8,29.83,NNE,23,2.0,14.0,95,0.06,,---,0.65,VWS V14.01,2013-04-11 02:14:00,
2013-04-10 22:19:00,45.1,43.5,29.82,NE,45,8.0,14.0,94,0.06,,---,0.65,VWS V14.01,2013-04-11 02:19:00,
2013-04-10 22:24:00,45.0,43.4,29.83,NE,36,5.0,14.0,94,0.06,,---,0.65,VWS V14.01,2013-04-11 02:24:00,
2013-04-10 22:29:00,45.1,43.5,29.84,SSE,148,5.0,14.0,94,0.06,,---,0.65,VWS V14.01,2013-04-11 02:29:00,
2013-04-10 22:30:00,45.1,43.5,29.85,ENE,65,3.0,14.0,94,0.06,,---,0.65,VWS V14.01,2013-04-11 02:30:00,
2013-04-10 22:34:00,45.0,43.4,29.85,NNE,13,0.0,7.0,94,0.02,,---,0.65,VWS V14.01,2013-04-11 02:34:00,
2013-04-10 22:39:00,45.0,43.4,29.86,ENE,70,3.0,7.0,94,0.02,,---,0.65,VWS V14.01,2013-04-11 02:39:00,
2013-04-10 22:44:00,45.0,43.7,29.87,ENE,61,3.0,7.0,95,0.02,,---,0.65,VWS V14.01,2013-04-11 02:44:00,
2013-04-10 22:49:00,45.0,43.4,29.87,ENE,60,2.0,7.0,94,0.02,,---,0.65,VWS V14.01,2013-04-11 02:49:00,
2013-04-10 22:54:00,45.0,43.4,29.88,ENE,63,3.0,7.0,94,0.02,,---,0.65,VWS V14.01,2013-04-11 02:54:00,
2013-04-10 22:59:00,45.0,43.4,29.87,ENE,63,5.0,7.0,94,0.02,,---,0.65,VWS V14.01,2013-04-11 02:59:00,
2013-04-10 23:00:00,44.9,43.3,29.86,East,79,0.0,7.0,94,0.02,,---,0.65,VWS V14.01,2013-04-11 03:00:00,
2013-04-10 23:04:00,44.9,43.6,29.83,NNE,25,2.0,5.0,95,0.02,,---,0.66,VWS V14.01,2013-04-11 03:04:00,
2013-04-10 23:09:00,44.7,43.4,29.82,NNW,343,2.0,16.0,95,0.03,,---,0.67,VWS V14.01,2013-04-11 03:09:00,
2013-04-10 23:14:00,44.6,43.3,29.77,ENE,58,5.0,16.0,95,0.04,,---,0.68,VWS V14.01,2013-04-11 03:14:00,
2013-04-10 23:19:00,44.6,43.3,29.76,NNW,344,5.0,17.0,95,0.04,,---,0.68,VWS V14.01,2013-04-11 03:19:00,
2013-04-10 23:24:00,44.6,43.3,29.81,ESE,105,2.0,17.0,95,0.04,,---,0.68,VWS V14.01,2013-04-11 03:24:00,
2013-04-10 23:29:00,44.7,43.4,29.81,NNE,16,3.0,17.0,95,0.04,,---,0.68,VWS V14.01,2013-04-11 03:29:00,
2013-04-10 23:30:00,44.7,43.4,29.81,ESE,105,3.0,17.0,95,0.04,,---,0.68,VWS V14.01,2013-04-11 03:30:00,
2013-04-10 23:34:00,44.7,43.4,29.81,NE,49,1.0,7.0,95,0.03,,---,0.68,VWS V14.01,2013-04-11 03:34:00,
2013-04-10 23:39:00,44.6,43.3,29.80,SE,138,3.0,13.0,95,0.03,,---,0.68,VWS V14.01,2013-04-11 03:39:00,
2013-04-10 23:44:00,44.5,43.2,29.82,NNE,29,0.0,13.0,95,0.03,,---,0.68,VWS V14.01,2013-04-11 03:44:00,
2013-04-10 23:49:00,44.5,43.2,29.83,East,87,0.0,13.0,95,0.03,,---,0.68,VWS V14.01,2013-04-11 03:49:00,
2013-04-10 23:54:00,44.5,43.2,29.83,ENE,75,1.0,13.0,95,0.04,,---,0.69,VWS V14.01,2013-04-11 03:54:00,
2013-04-10 23:59:00,44.5,43.2,29.83,ENE,75,2.0,13.0,95,0.04,,---,0.69,VWS V14.01,2013-04-11 03:59:00,